Aviation Digital Data Service (ADDS)

Output produced by METARs form (0406 UTC 24 May 2017)
found at http://aviationweather.gov/adds/metars/
 
KLAN 232340Z 2400/2424 30005KT P6SM VCSH BKN050 
     FM241200 05005KT P6SM -SHRA OVC025 
     FM241500 07007KT 4SM -SHRA BR OVC015 
     FM242100 07008KT 6SM -TSRA BKN025CB